Time;durP1;ratioP1;P1;durP2;ratioP2;P2;SDS_P1;SDS_P2;PMS_P1;PMS_P2;Temp;Humidity;BMP_temperature;BMP_pressure;BME280_temperature;BME280_humidity;BME280_pressure;Samples;Min_cycle;Max_cycle;Signal;HPM_P1;HPM_P2
2023/08/05 00:00:28;;;;;;;7.37;5.50;;;;;;;;;;5054359;28;20222;-88
2023/08/05 00:02:55;;;;;;;6.70;5.40;;;;;;;;;;5054154;28;20726;-88
2023/08/05 00:05:22;;;;;;;6.67;5.03;;;;;;;;;;5054682;28;20208;-88
2023/08/05 00:07:50;;;;;;;8.80;5.47;;;;;;;;;;5053780;28;20230;-88
2023/08/05 00:10:17;;;;;;;7.23;5.33;;;;;;;;;;5054329;28;20709;-87
2023/08/05 00:12:46;;;;;;;6.17;4.73;;;;;;;;;;5054464;28;20622;-87
2023/08/05 00:15:13;;;;;;;6.50;4.90;;;;;;;;;;5058355;28;20226;-88
2023/08/05 00:17:40;;;;;;;8.70;5.00;;;;;;;;;;5057651;28;20230;-87
2023/08/05 00:20:09;;;;;;;4.53;4.13;;;;;;;;;;5058203;28;20222;-87
2023/08/05 00:22:36;;;;;;;7.83;5.00;;;;;;;;;;5057986;28;20234;-87
2023/08/05 00:25:03;;;;;;;8.30;4.90;;;;;;;;;;5058873;28;20218;-87
2023/08/05 00:27:30;;;;;;;12.70;5.27;;;;;;;;;;5058252;28;20214;-87
2023/08/05 00:29:58;;;;;;;6.03;5.13;;;;;;;;;;5058675;28;20210;-87
2023/08/05 00:32:26;;;;;;;5.20;4.73;;;;;;;;;;5058846;28;20236;-88
2023/08/05 00:34:53;;;;;;;6.37;5.27;;;;;;;;;;5058650;28;20210;-87
2023/08/05 00:37:20;;;;;;;6.27;5.50;;;;;;;;;;5057431;28;20230;-88
2023/08/05 00:39:47;;;;;;;10.97;6.40;;;;;;;;;;5058298;28;20203;-88
2023/08/05 00:42:18;;;;;;;5.40;4.90;;;;;;;;;;5058434;28;20241;-88
2023/08/05 00:44:45;;;;;;;5.47;4.97;;;;;;;;;;5061718;28;20252;-88
2023/08/05 00:47:13;;;;;;;5.70;4.90;;;;;;;;;;5059302;28;20999;-88
2023/08/05 00:49:41;;;;;;;7.53;4.70;;;;;;;;;;5059253;28;20217;-88
2023/08/05 00:52:08;;;;;;;8.10;4.43;;;;;;;;;;5059516;28;20234;-88
2023/08/05 00:54:35;;;;;;;5.27;4.27;;;;;;;;;;5059540;28;20213;-88
2023/08/05 00:57:03;;;;;;;8.67;4.60;;;;;;;;;;5058404;28;20238;-88
2023/08/05 00:59:30;;;;;;;5.10;4.60;;;;;;;;;;5059275;28;20656;-88
2023/08/05 01:01:57;;;;;;;8.20;5.13;;;;;;;;;;5058990;28;20236;-88
2023/08/05 01:04:26;;;;;;;5.00;4.50;;;;;;;;;;5057505;28;20703;-88
2023/08/05 01:06:54;;;;;;;6.30;4.30;;;;;;;;;;5058955;28;20617;-88
2023/08/05 01:09:21;;;;;;;5.10;4.13;;;;;;;;;;5059201;28;20202;-88
2023/08/05 01:11:49;;;;;;;7.13;4.13;;;;;;;;;;5059226;28;20265;-88
2023/08/05 01:14:16;;;;;;;5.83;4.47;;;;;;;;;;5059395;28;20210;-88
2023/08/05 01:16:43;;;;;;;8.83;4.77;;;;;;;;;;5058833;28;20240;-88
2023/08/05 01:19:15;;;;;;;5.70;5.10;;;;;;;;;;5060045;28;20208;-88
2023/08/05 01:21:46;;;;;;;7.03;5.07;;;;;;;;;;5059290;28;20824;-88
2023/08/05 01:24:15;;;;;;;7.20;4.83;;;;;;;;;;5058182;28;20226;-88
2023/08/05 01:26:44;;;;;;;7.03;5.30;;;;;;;;;;5059435;28;20289;-88
2023/08/05 01:29:11;;;;;;;5.37;4.53;;;;;;;;;;5059792;28;20194;-88
2023/08/05 01:31:38;;;;;;;6.53;4.60;;;;;;;;;;5061146;28;20252;-88
2023/08/05 01:34:05;;;;;;;5.20;4.67;;;;;;;;;;5058312;28;20214;-88
2023/08/05 01:36:32;;;;;;;10.20;5.40;;;;;;;;;;5056604;28;20202;-88
2023/08/05 01:38:59;;;;;;;6.10;5.50;;;;;;;;;;5056030;28;20190;-88
2023/08/05 01:41:26;;;;;;;8.87;4.97;;;;;;;;;;5056202;28;20214;-88
2023/08/05 01:43:55;;;;;;;5.97;4.80;;;;;;;;;;5055718;28;20230;-87
2023/08/05 01:46:22;;;;;;;4.70;4.30;;;;;;;;;;5055135;28;20206;-88
2023/08/05 01:48:49;;;;;;;7.40;4.47;;;;;;;;;;5056607;28;20195;-87
2023/08/05 01:51:16;;;;;;;5.83;4.10;;;;;;;;;;5056186;28;20229;-88
2023/08/05 01:53:43;;;;;;;4.93;4.50;;;;;;;;;;5056537;28;20544;-88
2023/08/05 01:56:10;;;;;;;5.97;4.67;;;;;;;;;;5056216;28;20202;-87
2023/08/05 01:58:37;;;;;;;4.87;4.13;;;;;;;;;;5056061;28;20711;-87
2023/08/05 02:01:06;;;;;;;7.47;4.80;;;;;;;;;;5056143;28;20233;-87
2023/08/05 02:03:33;;;;;;;6.90;5.20;;;;;;;;;;5055844;28;20712;-87
2023/08/05 02:06:00;;;;;;;5.37;4.57;;;;;;;;;;5056375;28;20683;-87
2023/08/05 02:08:27;;;;;;;6.13;4.70;;;;;;;;;;5055925;28;20236;-88
2023/08/05 02:10:54;;;;;;;5.90;5.30;;;;;;;;;;5055514;28;20233;-88
2023/08/05 02:13:21;;;;;;;5.83;4.77;;;;;;;;;;5055300;28;20241;-87
2023/08/05 02:15:48;;;;;;;5.23;4.73;;;;;;;;;;5055927;28;20206;-87
2023/08/05 02:18:17;;;;;;;5.43;4.93;;;;;;;;;;5055445;28;20230;-87
2023/08/05 02:20:44;;;;;;;5.50;4.40;;;;;;;;;;5055576;28;20218;-87
2023/08/05 02:23:11;;;;;;;7.73;4.80;;;;;;;;;;5055055;28;20241;-87
2023/08/05 02:25:38;;;;;;;5.37;4.87;;;;;;;;;;5055450;28;20292;-87
2023/08/05 02:28:05;;;;;;;5.00;4.50;;;;;;;;;;5054931;28;20233;-87
2023/08/05 02:30:32;;;;;;;5.03;4.20;;;;;;;;;;5055515;28;20232;-87
2023/08/05 02:33:00;;;;;;;5.13;4.17;;;;;;;;;;5055107;28;20225;-87
2023/08/05 02:35:28;;;;;;;4.50;4.10;;;;;;;;;;5055332;28;20185;-86
2023/08/05 02:37:55;;;;;;;4.10;3.70;;;;;;;;;;5054648;28;20230;-86
2023/08/05 02:40:22;;;;;;;4.53;3.53;;;;;;;;;;5054305;28;20228;-87
2023/08/05 02:42:49;;;;;;;7.10;4.70;;;;;;;;;;5053291;28;20233;-86
2023/08/05 02:45:16;;;;;;;4.30;3.67;;;;;;;;;;5054537;28;20226;-87
2023/08/05 02:47:44;;;;;;;4.23;3.83;;;;;;;;;;5053066;28;20241;-87
2023/08/05 02:50:11;;;;;;;3.83;3.30;;;;;;;;;;5055364;28;20230;-88
2023/08/05 02:52:39;;;;;;;2.87;2.67;;;;;;;;;;5055388;28;20241;-88
2023/08/05 02:55:07;;;;;;;3.97;3.57;;;;;;;;;;5059919;28;20305;-88
2023/08/05 02:57:34;;;;;;;3.50;3.20;;;;;;;;;;5060198;28;20265;-87
2023/08/05 03:00:03;;;;;;;4.53;3.27;;;;;;;;;;5063993;28;20226;-87
2023/08/05 03:02:30;;;;;;;7.37;3.80;;;;;;;;;;5066298;28;20260;-87
2023/08/05 03:04:57;;;;;;;5.90;3.70;;;;;;;;;;5064225;28;20226;-87
2023/08/05 03:07:24;;;;;;;5.13;3.83;;;;;;;;;;5059055;28;20257;-87
2023/08/05 03:09:53;;;;;;;4.00;3.70;;;;;;;;;;5055071;28;20201;-87
2023/08/05 03:12:20;;;;;;;4.20;3.30;;;;;;;;;;5054341;28;20244;-87
2023/08/05 03:14:47;;;;;;;5.23;4.37;;;;;;;;;;5055193;28;20209;-87
2023/08/05 03:17:15;;;;;;;4.10;3.80;;;;;;;;;;5054442;28;20230;-87
2023/08/05 03:19:42;;;;;;;3.50;3.20;;;;;;;;;;5054648;28;20206;-87
2023/08/05 03:22:09;;;;;;;4.80;3.80;;;;;;;;;;5054410;28;20230;-87
2023/08/05 03:24:36;;;;;;;4.30;3.90;;;;;;;;;;5054499;28;20229;-87
2023/08/05 03:27:05;;;;;;;4.00;3.50;;;;;;;;;;5048031;28;20231;-87
2023/08/05 03:29:32;;;;;;;4.33;3.43;;;;;;;;;;5054490;28;20205;-87
2023/08/05 03:31:59;;;;;;;6.13;3.57;;;;;;;;;;5055304;28;20228;-87
2023/08/05 03:34:26;;;;;;;4.20;3.80;;;;;;;;;;5054747;28;20202;-87
2023/08/05 03:36:53;;;;;;;4.87;3.43;;;;;;;;;;5054109;28;20230;-87
2023/08/05 03:39:20;;;;;;;4.47;3.90;;;;;;;;;;5053752;28;20217;-87
2023/08/05 03:41:47;;;;;;;5.33;4.00;;;;;;;;;;5053311;28;20272;-87
2023/08/05 03:44:16;;;;;;;4.13;3.73;;;;;;;;;;5053192;28;20233;-87
2023/08/05 03:46:45;;;;;;;6.17;3.93;;;;;;;;;;5054167;28;20234;-87
2023/08/05 03:49:13;;;;;;;4.00;3.70;;;;;;;;;;5058091;28;20213;-87
2023/08/05 03:51:40;;;;;;;3.77;3.47;;;;;;;;;;5080753;22;20238;-89
2023/08/05 03:54:07;;;;;;;5.50;3.10;;;;;;;;;;5056584;28;20202;-89
2023/08/05 03:56:34;;;;;;;5.03;4.00;;;;;;;;;;5056556;28;20234;-89
2023/08/05 03:59:01;;;;;;;3.97;3.60;;;;;;;;;;5056601;28;20202;-89
2023/08/05 04:01:30;;;;;;;4.30;3.50;;;;;;;;;;5044868;28;20230;-88
2023/08/05 04:03:57;;;;;;;3.90;3.20;;;;;;;;;;5052253;28;20663;-89
2023/08/05 04:06:25;;;;;;;5.47;3.63;;;;;;;;;;5045249;28;20207;-89
2023/08/05 04:08:53;;;;;;;3.03;2.83;;;;;;;;;;5037561;28;20310;-89
2023/08/05 04:11:21;;;;;;;7.27;3.27;;;;;;;;;;5047251;28;20699;-88
2023/08/05 04:13:50;;;;;;;6.07;3.80;;;;;;;;;;5047503;28;20706;-89
2023/08/05 04:16:17;;;;;;;4.83;3.40;;;;;;;;;;5043102;28;20268;-88
2023/08/05 04:18:48;;;;;;;8.43;5.03;;;;;;;;;;5054397;28;20206;-89
2023/08/05 04:21:15;;;;;;;4.90;3.80;;;;;;;;;;5045075;28;20226;-88
2023/08/05 04:23:42;;;;;;;7.33;4.03;;;;;;;;;;5047017;28;20210;-89
2023/08/05 04:26:09;;;;;;;5.10;3.90;;;;;;;;;;5045881;28;20230;-89
2023/08/05 04:28:36;;;;;;;4.57;4.17;;;;;;;;;;5047587;28;20242;-89
2023/08/05 04:31:04;;;;;;;5.73;4.80;;;;;;;;;;5055155;28;20234;-88
2023/08/05 04:33:32;;;;;;;6.87;6.17;;;;;;;;;;5041709;28;20234;-89
2023/08/05 04:36:00;;;;;;;5.90;5.00;;;;;;;;;;5044279;28;20206;-89
2023/08/05 04:38:27;;;;;;;8.00;4.83;;;;;;;;;;5045740;28;20284;-89
2023/08/05 04:40:54;;;;;;;5.43;4.63;;;;;;;;;;5049574;28;20237;-89
2023/08/05 04:43:21;;;;;;;5.40;4.53;;;;;;;;;;5043428;28;20233;-89
2023/08/05 04:45:50;;;;;;;8.80;5.27;;;;;;;;;;5047347;28;20333;-92
2023/08/05 04:48:18;;;;;;;5.50;5.00;;;;;;;;;;5038705;28;20361;-91
2023/08/05 04:50:45;;;;;;;4.93;4.43;;;;;;;;;;5049269;28;20262;-90
2023/08/05 04:53:15;;;;;;;9.80;6.23;;;;;;;;;;5043966;28;20233;-91
2023/08/05 04:55:42;;;;;;;6.47;5.17;;;;;;;;;;5044590;28;20198;-91
2023/08/05 04:58:11;;;;;;;8.07;5.90;;;;;;;;;;5043283;28;20731;-91
2023/08/05 05:00:38;;;;;;;5.43;4.73;;;;;;;;;;5034062;28;20265;-91
2023/08/05 05:03:07;;;;;;;10.00;5.47;;;;;;;;;;5045628;28;20591;-90
2023/08/05 05:05:35;;;;;;;7.67;5.33;;;;;;;;;;5050895;28;20226;-90
2023/08/05 05:08:02;;;;;;;5.73;4.13;;;;;;;;;;5039516;28;20238;-92
2023/08/05 05:10:30;;;;;;;5.03;4.53;;;;;;;;;;5052157;28;20249;-92
2023/08/05 05:12:58;;;;;;;5.53;4.73;;;;;;;;;;5042772;28;20231;-91
2023/08/05 05:15:25;;;;;;;7.80;5.13;;;;;;;;;;5046197;28;20207;-91
2023/08/05 05:17:52;;;;;;;7.73;5.50;;;;;;;;;;5046253;28;20241;-92
2023/08/05 05:20:19;;;;;;;6.90;5.13;;;;;;;;;;5056193;28;20236;-91
2023/08/05 05:22:46;;;;;;;8.40;5.13;;;;;;;;;;5055226;28;20650;-92
2023/08/05 05:25:13;;;;;;;7.87;6.17;;;;;;;;;;5040302;28;20223;-92
2023/08/05 05:27:41;;;;;;;8.80;6.07;;;;;;;;;;5054813;28;20236;-91
2023/08/05 05:30:09;;;;;;;9.90;6.40;;;;;;;;;;5055386;28;20230;-91
2023/08/05 05:32:36;;;;;;;8.53;6.47;;;;;;;;;;5054604;28;20241;-92
2023/08/05 05:35:03;;;;;;;8.40;6.90;;;;;;;;;;5055077;28;20293;-91
2023/08/05 05:37:31;;;;;;;7.77;6.33;;;;;;;;;;5054802;28;20229;-92
2023/08/05 05:39:58;;;;;;;11.43;6.70;;;;;;;;;;5054933;28;20683;-91
2023/08/05 05:42:25;;;;;;;9.97;6.67;;;;;;;;;;5053901;28;20229;-92
2023/08/05 05:44:54;;;;;;;8.23;6.63;;;;;;;;;;5054708;28;20229;-92
2023/08/05 05:47:22;;;;;;;7.77;6.47;;;;;;;;;;5054236;28;20236;-91
2023/08/05 05:49:49;;;;;;;9.10;6.47;;;;;;;;;;5054689;28;20198;-92
2023/08/05 05:52:16;;;;;;;9.00;6.13;;;;;;;;;;5049655;28;20248;-94
2023/08/05 05:54:44;;;;;;;8.00;6.10;;;;;;;;;;5051342;28;20526;-92
2023/08/05 05:57:11;;;;;;;7.10;6.00;;;;;;;;;;5054048;28;20242;-94
2023/08/05 05:59:39;;;;;;;7.47;5.47;;;;;;;;;;5054301;28;20667;-95
2023/08/05 06:02:08;;;;;;;6.27;5.67;;;;;;;;;;5048031;28;20230;-93
2023/08/05 06:04:36;;;;;;;9.50;5.63;;;;;;;;;;5035631;28;20264;-94
2023/08/05 06:07:03;;;;;;;6.63;5.23;;;;;;;;;;5034153;28;20280;-94
2023/08/05 06:09:31;;;;;;;5.53;4.90;;;;;;;;;;5034327;28;20301;-93
2023/08/05 06:11:59;;;;;;;8.47;6.13;;;;;;;;;;5033400;28;20242;-93
2023/08/05 06:14:26;;;;;;;6.97;5.73;;;;;;;;;;5034041;28;20207;-92
2023/08/05 06:16:53;;;;;;;7.80;5.33;;;;;;;;;;5033547;28;20238;-92
2023/08/05 06:19:21;;;;;;;8.20;5.20;;;;;;;;;;5045490;28;20211;-91
2023/08/05 06:21:48;;;;;;;6.90;5.03;;;;;;;;;;5044074;28;20245;-90
2023/08/05 06:24:15;;;;;;;5.00;4.50;;;;;;;;;;5045697;28;20211;-90
2023/08/05 06:26:42;;;;;;;6.30;4.33;;;;;;;;;;5048673;28;20238;-90
2023/08/05 06:29:09;;;;;;;10.23;5.13;;;;;;;;;;5047766;28;21545;-89
2023/08/05 06:31:36;;;;;;;4.67;4.27;;;;;;;;;;5045973;28;20234;-88
2023/08/05 06:34:04;;;;;;;5.23;4.23;;;;;;;;;;5054805;28;20187;-89
2023/08/05 06:36:32;;;;;;;4.50;4.10;;;;;;;;;;5036985;28;20210;-89
2023/08/05 06:38:59;;;;;;;5.13;4.33;;;;;;;;;;5040066;28;20214;-91
2023/08/05 06:41:26;;;;;;;4.37;3.97;;;;;;;;;;5037535;28;20238;-89
2023/08/05 06:43:53;;;;;;;5.77;4.47;;;;;;;;;;5036599;28;20203;-87
2023/08/05 06:46:21;;;;;;;6.90;4.20;;;;;;;;;;5046612;28;20235;-91
2023/08/05 06:48:48;;;;;;;4.17;3.77;;;;;;;;;;5037411;28;20293;-91
2023/08/05 06:51:15;;;;;;;5.50;3.97;;;;;;;;;;5034775;28;20241;-90
2023/08/05 06:53:44;;;;;;;4.10;3.70;;;;;;;;;;5036625;28;20225;-91
2023/08/05 06:56:12;;;;;;;5.20;4.00;;;;;;;;;;5036690;28;20206;-90
2023/08/05 06:58:39;;;;;;;6.53;3.97;;;;;;;;;;5036040;28;20237;-90
2023/08/05 07:01:06;;;;;;;4.00;3.63;;;;;;;;;;5037821;28;20249;-90
2023/08/05 07:03:33;;;;;;;5.40;3.70;;;;;;;;;;5045314;28;20230;-90
2023/08/05 07:06:00;;;;;;;5.97;4.20;;;;;;;;;;5045104;28;20233;-90
2023/08/05 07:08:28;;;;;;;3.93;3.53;;;;;;;;;;5035128;28;20237;-90
2023/08/05 07:10:57;;;;;;;3.90;3.30;;;;;;;;;;5039272;28;20275;-91
2023/08/05 07:13:24;;;;;;;3.42;3.08;;;;;;;;;;5051946;28;20234;-91
2023/08/05 07:15:51;;;;;;;7.73;3.43;;;;;;;;;;5044578;28;20202;-90
2023/08/05 07:18:18;;;;;;;3.05;2.85;;;;;;;;;;5052099;28;20233;-91
2023/08/05 07:20:46;;;;;;;4.13;3.17;;;;;;;;;;5043862;28;20235;-90
2023/08/05 07:23:13;;;;;;;7.75;3.10;;;;;;;;;;5044433;28;20234;-90
2023/08/05 07:25:40;;;;;;;3.67;3.13;;;;;;;;;;5052365;28;20394;-90
2023/08/05 07:28:08;;;;;;;6.53;3.25;;;;;;;;;;5051629;28;20259;-90
2023/08/05 07:30:35;;;;;;;2.88;2.67;;;;;;;;;;5044844;28;20226;-90
2023/08/05 07:33:04;;;;;;;3.35;3.05;;;;;;;;;;5043775;28;20234;-89
2023/08/05 07:35:32;;;;;;;3.38;3.03;;;;;;;;;;5045624;28;20245;-91
2023/08/05 07:38:01;;;;;;;3.40;3.10;;;;;;;;;;5044078;28;20679;-90
2023/08/05 07:40:29;;;;;;;2.97;2.78;;;;;;;;;;5045051;28;20222;-90
2023/08/05 07:42:56;;;;;;;4.00;3.42;;;;;;;;;;5047223;28;20283;-90
2023/08/05 07:45:26;;;;;;;2.92;2.55;;;;;;;;;;5054592;28;20230;-89
2023/08/05 07:47:53;;;;;;;3.10;2.67;;;;;;;;;;5045038;28;20318;-88
2023/08/05 07:50:22;;;;;;;3.58;2.60;;;;;;;;;;5051556;28;20241;-87
2023/08/05 07:52:49;;;;;;;5.93;2.80;;;;;;;;;;5040288;28;20256;-89
2023/08/05 07:55:18;;;;;;;2.95;2.60;;;;;;;;;;5044153;28;20202;-88
2023/08/05 07:57:46;;;;;;;3.60;2.50;;;;;;;;;;5046444;28;20226;-88
2023/08/05 08:00:13;;;;;;;2.83;2.63;;;;;;;;;;5052060;28;20222;-90
2023/08/05 08:02:44;;;;;;;3.63;2.70;;;;;;;;;;5053586;28;20230;-89
2023/08/05 08:05:14;;;;;;;4.85;2.42;;;;;;;;;;5040598;28;20669;-90
2023/08/05 08:07:45;;;;;;;4.85;2.60;;;;;;;;;;5055367;28;20226;-89
2023/08/05 08:10:12;;;;;;;3.05;2.13;;;;;;;;;;5051433;28;20265;-90
2023/08/05 08:12:39;;;;;;;2.53;2.33;;;;;;;;;;5036240;28;20239;-92
2023/08/05 08:15:06;;;;;;;4.07;2.20;;;;;;;;;;5040448;28;20210;-89
2023/08/05 08:17:33;;;;;;;2.45;2.25;;;;;;;;;;5056220;28;20579;-89
2023/08/05 08:20:02;;;;;;;2.33;2.13;;;;;;;;;;5048457;28;20207;-91
2023/08/05 08:22:29;;;;;;;2.88;2.25;;;;;;;;;;5051388;28;20583;-93
2023/08/05 08:24:56;;;;;;;2.72;2.10;;;;;;;;;;5053549;28;20660;-92
2023/08/05 08:27:23;;;;;;;3.72;2.25;;;;;;;;;;5044947;28;20702;-90
2023/08/05 08:29:50;;;;;;;4.18;2.38;;;;;;;;;;5049755;28;20671;-89
2023/08/05 08:32:17;;;;;;;3.10;2.15;;;;;;;;;;5051591;28;20318;-91
2023/08/05 08:34:45;;;;;;;2.40;2.03;;;;;;;;;;5045538;28;20286;-90
2023/08/05 08:37:13;;;;;;;2.25;2.08;;;;;;;;;;5039856;28;20738;-90
2023/08/05 08:39:40;;;;;;;2.63;2.08;;;;;;;;;;5041279;28;20199;-89
2023/08/05 08:42:08;;;;;;;2.20;2.10;;;;;;;;;;5049315;28;20718;-87
2023/08/05 08:44:36;;;;;;;5.28;2.30;;;;;;;;;;5046823;28;20277;-88
2023/08/05 08:47:03;;;;;;;4.22;2.28;;;;;;;;;;5037153;28;20249;-88
2023/08/05 08:49:33;;;;;;;2.30;1.95;;;;;;;;;;5045942;28;20657;-87
2023/08/05 08:52:00;;;;;;;2.60;1.73;;;;;;;;;;5043312;28;20230;-88
2023/08/05 08:54:29;;;;;;;4.10;2.10;;;;;;;;;;5053908;28;20256;-87
2023/08/05 08:56:58;;;;;;;1.42;1.33;;;;;;;;;;5044792;28;20706;-89
2023/08/05 08:59:25;;;;;;;3.15;1.30;;;;;;;;;;5046104;28;20206;-89
2023/08/05 09:01:53;;;;;;;2.03;1.10;;;;;;;;;;5044002;28;20257;-89
2023/08/05 09:04:20;;;;;;;1.92;1.40;;;;;;;;;;5051185;28;20205;-87
2023/08/05 09:06:48;;;;;;;2.00;1.20;;;;;;;;;;5039985;28;20653;-88
2023/08/05 09:09:15;;;;;;;0.93;0.93;;;;;;;;;;5038638;28;20203;-90
2023/08/05 09:11:43;;;;;;;1.73;1.27;;;;;;;;;;5045161;28;20246;-93
2023/08/05 09:14:10;;;;;;;0.90;0.90;;;;;;;;;;5054822;28;20202;-91
2023/08/05 09:16:56;;;;;;;3.70;1.50;;;;;;;;;;5037680;28;20235;-91
2023/08/05 09:19:25;;;;;;;1.45;1.35;;;;;;;;;;5046185;28;20233;-90
2023/08/05 09:21:52;;;;;;;1.30;1.20;;;;;;;;;;5045746;28;20292;-90
2023/08/05 09:24:22;;;;;;;2.25;1.65;;;;;;;;;;5033669;28;20237;-90
2023/08/05 09:26:55;;;;;;;1.23;1.05;;;;;;;;;;5041875;28;20226;-90
2023/08/05 09:29:22;;;;;;;1.85;1.73;;;;;;;;;;5042590;28;20539;-89
2023/08/05 09:31:55;;;;;;;2.47;1.40;;;;;;;;;;5046028;28;20241;-89
2023/08/05 09:34:22;;;;;;;1.25;1.13;;;;;;;;;;5037400;28;20322;-90
2023/08/05 09:36:49;;;;;;;1.88;1.30;;;;;;;;;;5040380;28;20228;-89
2023/08/05 09:39:16;;;;;;;1.30;1.20;;;;;;;;;;5038901;28;20484;-89
2023/08/05 09:41:52;;;;;;;1.40;1.30;;;;;;;;;;5037334;28;20242;-89
2023/08/05 09:44:19;;;;;;;1.52;1.27;;;;;;;;;;5046495;28;20206;-89
2023/08/05 09:46:48;;;;;;;3.10;1.27;;;;;;;;;;5032187;28;20238;-87
2023/08/05 09:49:17;;;;;;;1.65;1.35;;;;;;;;;;5041493;28;20304;-87
2023/08/05 09:51:45;;;;;;;2.58;1.25;;;;;;;;;;5083091;22;20291;-85
2023/08/05 09:54:14;;;;;;;1.40;1.30;;;;;;;;;;5061430;28;20518;-85
2023/08/05 09:56:42;;;;;;;3.33;1.30;;;;;;;;;;5059215;28;20229;-86
2023/08/05 09:59:12;;;;;;;2.22;1.55;;;;;;;;;;5067206;28;20241;-86
2023/08/05 10:01:40;;;;;;;1.67;1.30;;;;;;;;;;5061803;28;20287;-86
2023/08/05 10:04:09;;;;;;;1.33;1.23;;;;;;;;;;5068839;28;20220;-87
2023/08/05 10:06:38;;;;;;;1.15;1.10;;;;;;;;;;5066142;28;20232;-88
2023/08/05 10:09:09;;;;;;;1.00;1.00;;;;;;;;;;5073526;28;20214;-88
2023/08/05 10:11:37;;;;;;;3.97;1.42;;;;;;;;;;5072539;28;20247;-88
2023/08/05 10:14:04;;;;;;;1.17;0.90;;;;;;;;;;5063994;28;20209;-88
2023/08/05 10:16:33;;;;;;;1.88;1.10;;;;;;;;;;5070473;28;20202;-88
2023/08/05 10:19:00;;;;;;;1.85;1.38;;;;;;;;;;5063097;28;20206;-88
2023/08/05 10:21:36;;;;;;;0.95;0.95;;;;;;;;;;5063459;28;20286;-90
2023/08/05 10:24:04;;;;;;;1.30;1.20;;;;;;;;;;5071079;28;20201;-87
2023/08/05 10:26:44;;;;;;;0.98;0.80;;;;;;;;;;5066006;28;20868;-88
2023/08/05 10:29:26;;;;;;;1.75;1.17;;;;;;;;;;5061846;28;20243;-87
2023/08/05 10:32:08;;;;;;;3.38;1.30;;;;;;;;;;5062888;28;20233;-87
2023/08/05 10:34:35;;;;;;;1.00;1.00;;;;;;;;;;5064066;28;20213;-88
2023/08/05 10:37:03;;;;;;;1.10;1.00;;;;;;;;;;5069549;28;20234;-88
2023/08/05 10:39:42;;;;;;;1.75;1.10;;;;;;;;;;5063002;28;20638;-88
2023/08/05 10:42:19;;;;;;;0.90;0.90;;;;;;;;;;5062482;28;20237;-87
2023/08/05 10:44:46;;;;;;;1.40;1.30;;;;;;;;;;5057518;28;20208;-87
2023/08/05 10:47:15;;;;;;;1.20;1.10;;;;;;;;;;5066035;28;20233;-88
2023/08/05 10:49:43;;;;;;;3.45;1.38;;;;;;;;;;5072242;28;20211;-87
2023/08/05 10:52:16;;;;;;;1.05;1.00;;;;;;;;;;5062237;28;20232;-88
2023/08/05 10:54:44;;;;;;;1.92;0.95;;;;;;;;;;5064893;28;20206;-88
2023/08/05 10:57:29;;;;;;;2.95;1.23;;;;;;;;;;5067924;28;20226;-87
2023/08/05 10:59:59;;;;;;;1.23;1.13;;;;;;;;;;5062740;28;20205;-88
2023/08/05 11:02:28;;;;;;;1.92;1.15;;;;;;;;;;5070479;28;20237;-88
2023/08/05 11:05:06;;;;;;;0.82;0.82;;;;;;;;;;5062936;28;20252;-89
2023/08/05 11:07:34;;;;;;;1.88;1.00;;;;;;;;;;5062024;28;20256;-88
2023/08/05 11:10:02;;;;;;;1.83;1.20;;;;;;;;;;5062698;28;20696;-88
2023/08/05 11:12:30;;;;;;;3.97;1.10;;;;;;;;;;5062294;28;20271;-88
2023/08/05 11:14:57;;;;;;;3.05;1.38;;;;;;;;;;5061958;28;20692;-88
2023/08/05 11:17:24;;;;;;;1.30;1.20;;;;;;;;;;5062269;28;20226;-88
2023/08/05 11:19:53;;;;;;;1.35;1.10;;;;;;;;;;5062501;28;20214;-89
2023/08/05 11:22:25;;;;;;;1.10;1.00;;;;;;;;;;5062159;28;20610;-88
2023/08/05 11:24:56;;;;;;;0.85;0.85;;;;;;;;;;5057620;28;20276;-88
2023/08/05 11:27:29;;;;;;;1.70;1.05;;;;;;;;;;5065508;28;20248;-88
2023/08/05 11:29:56;;;;;;;1.77;1.00;;;;;;;;;;5062875;28;20198;-89
2023/08/05 11:32:24;;;;;;;1.17;1.08;;;;;;;;;;5061897;28;20233;-89
2023/08/05 11:35:01;;;;;;;1.20;1.08;;;;;;;;;;5065309;28;20197;-89
2023/08/05 11:37:35;;;;;;;1.05;0.93;;;;;;;;;;5065374;28;20228;-88
2023/08/05 11:40:02;;;;;;;1.48;1.20;;;;;;;;;;5066014;28;20202;-88
2023/08/05 11:42:31;;;;;;;0.80;0.75;;;;;;;;;;5064319;28;20229;-88
2023/08/05 11:44:58;;;;;;;1.63;0.95;;;;;;;;;;5062645;28;20241;-88
2023/08/05 11:47:25;;;;;;;1.00;1.00;;;;;;;;;;5061703;28;20236;-88
2023/08/05 11:49:54;;;;;;;1.10;1.00;;;;;;;;;;5070715;28;20190;-88
2023/08/05 11:52:22;;;;;;;2.22;0.60;;;;;;;;;;5060534;28;20229;-88
2023/08/05 11:54:57;;;;;;;1.50;1.10;;;;;;;;;;5062715;28;20206;-88
2023/08/05 11:57:25;;;;;;;0.90;0.65;;;;;;;;;;5069752;28;20251;-88
2023/08/05 11:59:53;;;;;;;2.08;0.73;;;;;;;;;;5064900;28;20678;-89
2023/08/05 12:02:21;;;;;;;0.80;0.80;;;;;;;;;;5060401;28;20228;-89
2023/08/05 12:04:49;;;;;;;1.38;0.90;;;;;;;;;;5064089;28;20221;-88
2023/08/05 12:07:18;;;;;;;1.50;1.30;;;;;;;;;;5045663;28;20238;-88
2023/08/05 12:09:46;;;;;;;0.85;0.82;;;;;;;;;;5065193;28;20201;-88
2023/08/05 12:12:15;;;;;;;0.70;0.70;;;;;;;;;;5070555;28;20270;-89
2023/08/05 12:14:42;;;;;;;1.52;0.90;;;;;;;;;;5067409;28;20732;-89
2023/08/05 12:17:10;;;;;;;2.20;0.90;;;;;;;;;;5065666;28;20222;-89
2023/08/05 12:19:37;;;;;;;1.30;0.95;;;;;;;;;;5065873;28;20271;-88
2023/08/05 12:22:04;;;;;;;0.73;0.73;;;;;;;;;;5155873;22;20706;-89
2023/08/05 12:24:33;;;;;;;1.73;0.90;;;;;;;;;;5097575;28;20684;-89
2023/08/05 12:27:00;;;;;;;0.70;0.70;;;;;;;;;;5097097;28;20235;-88
2023/08/05 12:29:27;;;;;;;1.63;0.93;;;;;;;;;;5097726;28;20216;-88
2023/08/05 12:31:54;;;;;;;0.95;0.95;;;;;;;;;;5096497;28;20609;-88
2023/08/05 12:34:21;;;;;;;1.05;1.00;;;;;;;;;;5097351;28;20201;-88
2023/08/05 12:36:49;;;;;;;0.70;0.70;;;;;;;;;;5096873;28;20231;-88
2023/08/05 12:39:16;;;;;;;1.05;0.95;;;;;;;;;;5097388;28;20201;-88
2023/08/05 12:41:44;;;;;;;1.25;0.77;;;;;;;;;;5096147;28;20318;-89
2023/08/05 12:44:11;;;;;;;0.70;0.70;;;;;;;;;;5097375;28;20587;-88
2023/08/05 12:46:38;;;;;;;0.90;0.90;;;;;;;;;;5096392;28;20263;-88
2023/08/05 12:49:05;;;;;;;0.70;0.70;;;;;;;;;;5097295;28;20204;-88
2023/08/05 12:51:32;;;;;;;0.93;0.60;;;;;;;;;;5096788;28;20637;-88
2023/08/05 12:53:59;;;;;;;0.90;0.60;;;;;;;;;;5097027;28;20207;-88
2023/08/05 12:56:27;;;;;;;0.95;0.95;;;;;;;;;;5096250;28;20219;-88
2023/08/05 12:58:55;;;;;;;0.60;0.60;;;;;;;;;;5096728;28;20211;-87
2023/08/05 13:01:22;;;;;;;0.52;0.52;;;;;;;;;;5096132;28;20655;-88
2023/08/05 13:03:49;;;;;;;2.35;0.80;;;;;;;;;;5096101;28;20208;-87
2023/08/05 13:06:16;;;;;;;1.00;0.90;;;;;;;;;;5094652;28;20215;-87
2023/08/05 13:08:43;;;;;;;0.80;0.80;;;;;;;;;;5095023;28;20567;-88
2023/08/05 13:11:10;;;;;;;0.75;0.75;;;;;;;;;;5096717;28;20232;-88
2023/08/05 13:13:37;;;;;;;1.52;0.88;;;;;;;;;;5096090;28;20246;-88
2023/08/05 13:16:06;;;;;;;1.52;0.90;;;;;;;;;;5096553;28;20204;-87
2023/08/05 13:18:34;;;;;;;1.85;1.23;;;;;;;;;;5096190;28;20311;-88
2023/08/05 13:21:01;;;;;;;1.98;1.27;;;;;;;;;;5095252;28;20611;-87
2023/08/05 13:23:28;;;;;;;1.85;0.90;;;;;;;;;;5095629;28;20255;-88
2023/08/05 13:25:55;;;;;;;1.08;0.95;;;;;;;;;;5096346;28;20208;-88
2023/08/05 13:28:22;;;;;;;1.00;0.90;;;;;;;;;;5095912;28;20239;-87
2023/08/05 13:30:49;;;;;;;0.88;0.88;;;;;;;;;;5095665;28;20311;-87
2023/08/05 13:33:18;;;;;;;1.13;1.10;;;;;;;;;;5095669;28;20239;-87
2023/08/05 13:35:45;;;;;;;1.17;1.08;;;;;;;;;;5095927;28;20686;-87
2023/08/05 13:38:12;;;;;;;1.75;1.00;;;;;;;;;;5095862;28;20267;-87
2023/08/05 13:40:39;;;;;;;0.93;0.93;;;;;;;;;;5095757;28;20315;-88
2023/08/05 13:43:06;;;;;;;1.27;1.17;;;;;;;;;;5094590;28;20596;-87
2023/08/05 13:45:33;;;;;;;1.20;1.20;;;;;;;;;;5095883;28;20227;-87
2023/08/05 13:48:01;;;;;;;1.02;1.02;;;;;;;;;;5095371;28;20297;-87
2023/08/05 13:50:29;;;;;;;1.48;1.20;;;;;;;;;;5096112;28;20224;-86
2023/08/05 13:52:56;;;;;;;1.30;1.20;;;;;;;;;;5094828;28;20725;-87
2023/08/05 13:55:23;;;;;;;1.40;1.35;;;;;;;;;;5095585;28;20208;-87
2023/08/05 13:57:50;;;;;;;1.67;1.20;;;;;;;;;;5094891;28;20228;-87
2023/08/05 14:00:17;;;;;;;1.33;1.20;;;;;;;;;;5095869;28;20217;-86
2023/08/05 14:02:44;;;;;;;2.83;1.60;;;;;;;;;;5093775;28;20232;-85
2023/08/05 14:05:12;;;;;;;1.95;1.48;;;;;;;;;;5093834;28;20217;-87
2023/08/05 14:07:40;;;;;;;3.17;1.23;;;;;;;;;;5094241;28;20236;-87
2023/08/05 14:10:07;;;;;;;1.95;1.63;;;;;;;;;;5095094;28;20215;-86
2023/08/05 14:12:35;;;;;;;1.80;1.40;;;;;;;;;;5095064;28;20234;-86
2023/08/05 14:15:02;;;;;;;1.38;1.27;;;;;;;;;;5095131;28;20212;-87
2023/08/05 14:17:29;;;;;;;1.77;1.40;;;;;;;;;;5094866;28;20315;-87
2023/08/05 14:19:56;;;;;;;1.50;1.40;;;;;;;;;;5093833;28;20205;-86
2023/08/05 14:22:23;;;;;;;1.42;1.30;;;;;;;;;;5092733;28;20229;-86
2023/08/05 14:24:52;;;;;;;2.40;1.50;;;;;;;;;;5087697;28;20223;-86
2023/08/05 14:27:19;;;;;;;2.65;1.38;;;;;;;;;;5091753;28;20225;-85
2023/08/05 14:29:46;;;;;;;2.72;1.40;;;;;;;;;;5095622;28;20697;-85
2023/08/05 14:32:13;;;;;;;2.03;1.52;;;;;;;;;;5094110;28;20713;-84
2023/08/05 14:34:40;;;;;;;1.63;1.52;;;;;;;;;;5094861;28;20554;-85
2023/08/05 14:37:07;;;;;;;1.60;1.50;;;;;;;;;;5094564;28;20609;-85
2023/08/05 14:39:34;;;;;;;2.90;1.70;;;;;;;;;;5091788;28;20212;-85
2023/08/05 14:42:03;;;;;;;1.65;1.55;;;;;;;;;;5076761;28;20323;-85
2023/08/05 14:44:30;;;;;;;1.77;1.50;;;;;;;;;;5076865;28;20288;-84
2023/08/05 14:46:57;;;;;;;1.17;1.08;;;;;;;;;;5076999;28;20324;-85